Time;durP1;ratioP1;P1;durP2;ratioP2;P2;SDS_P1;SDS_P2;PMS_P1;PMS_P2;Temp;Humidity;BMP_temperature;BMP_pressure;BME280_temperature;BME280_humidity;BME280_pressure;Samples;Min_cycle;Max_cycle;Signal;HPM_P1;HPM_P2
2023/07/29 00:01:05;;;;;;;7.93;4.72;;;;;;;19.42;94.11;100649.03;4995709;28;20117;-60
2023/07/29 00:03:31;;;;;;;7.78;4.30;;;;;;;19.40;94.22;100638.34;4995574;28;20034;-60
2023/07/29 00:05:57;;;;;;;6.90;4.75;;;;;;;19.40;95.00;100630.31;4995621;28;20471;-60
2023/07/29 00:08:23;;;;;;;8.38;4.80;;;;;;;19.49;94.93;100621.13;4994265;28;20105;-60
2023/07/29 00:10:48;;;;;;;8.32;4.97;;;;;;;19.46;94.75;100616.72;4995564;28;20023;-60
2023/07/29 00:13:13;;;;;;;11.00;4.80;;;;;;;19.45;94.92;100614.09;4995285;28;20110;-59
2023/07/29 00:15:39;;;;;;;10.60;4.97;;;;;;;19.45;95.17;100614.97;4995420;28;20075;-59
2023/07/29 00:18:04;;;;;;;7.78;4.60;;;;;;;19.35;95.33;100615.28;4995460;28;20058;-60
2023/07/29 00:20:29;;;;;;;9.68;5.05;;;;;;;19.18;96.70;100616.63;4995577;28;20037;-59
2023/07/29 00:22:55;;;;;;;6.70;4.72;;;;;;;19.05;97.68;100617.91;4995331;28;20037;-60
2023/07/29 00:25:21;;;;;;;12.95;5.00;;;;;;;18.92;98.46;100620.03;4995096;28;20030;-60
2023/07/29 00:27:47;;;;;;;8.75;5.13;;;;;;;18.92;98.96;100621.84;4995306;28;20494;-59
2023/07/29 00:30:12;;;;;;;8.27;4.80;;;;;;;19.01;99.07;100618.91;4995180;28;20026;-62
2023/07/29 00:32:38;;;;;;;10.00;5.07;;;;;;;19.05;98.73;100619.72;4995107;28;20030;-59
2023/07/29 00:35:03;;;;;;;14.20;4.88;;;;;;;19.11;98.18;100623.09;4995360;28;20121;-59
2023/07/29 00:37:30;;;;;;;8.93;5.30;;;;;;;19.13;98.33;100626.59;4994876;28;20054;-60
2023/07/29 00:39:56;;;;;;;10.80;4.90;;;;;;;19.17;98.19;100622.03;4995274;28;20034;-61
2023/07/29 00:42:21;;;;;;;6.15;4.68;;;;;;;19.27;97.54;100620.84;4995038;28;20034;-60
2023/07/29 00:44:47;;;;;;;8.93;5.28;;;;;;;19.26;97.47;100606.59;4995174;28;20042;-60
2023/07/29 00:47:15;;;;;;;9.63;5.57;;;;;;;19.19;97.95;100606.81;4994933;28;20030;-60
2023/07/29 00:49:41;;;;;;;9.82;5.22;;;;;;;19.17;97.70;100598.81;4994898;28;20030;-60
2023/07/29 00:52:06;;;;;;;6.93;4.70;;;;;;;19.23;98.06;100601.34;4994677;28;20022;-60
2023/07/29 00:54:32;;;;;;;9.07;5.43;;;;;;;19.14;97.68;100595.34;4994828;28;20480;-60
2023/07/29 00:56:57;;;;;;;10.30;5.10;;;;;;;19.05;98.64;100599.16;4977501;28;20030;-60
2023/07/29 00:59:23;;;;;;;6.45;5.20;;;;;;;19.00;99.06;100591.25;4994724;28;20038;-60
2023/07/29 01:01:48;;;;;;;9.50;5.65;;;;;;;19.00;98.98;100591.25;4994701;28;20084;-60
2023/07/29 01:04:14;;;;;;;7.90;5.15;;;;;;;19.06;98.83;100589.31;4994000;28;20504;-60
2023/07/29 01:07:14;;;;;;;9.25;5.38;;;;;;;19.04;99.33;100589.38;4994262;28;20439;-60
2023/07/29 01:09:58;;;;;;;7.70;5.13;;;;;;;19.05;98.73;100595.59;4994598;28;20037;-59
2023/07/29 01:12:29;;;;;;;10.88;5.38;;;;;;;19.07;98.96;100596.47;4977053;28;20077;-60
2023/07/29 01:15:16;;;;;;;12.20;5.60;;;;;;;19.14;98.57;100593.56;4994451;28;20064;-60
2023/07/29 01:17:46;;;;;;;7.45;5.45;;;;;;;19.18;98.46;100595.19;4994461;28;20269;-60
2023/07/29 01:20:15;;;;;;;7.57;4.80;;;;;;;19.06;97.90;100595.59;4994745;28;20085;-60
2023/07/29 01:22:41;;;;;;;13.63;5.40;;;;;;;18.94;98.95;100593.25;4994489;28;20054;-60
2023/07/29 01:25:07;;;;;;;8.35;5.45;;;;;;;18.85;99.68;100594.38;4994200;28;20381;-60
2023/07/29 01:27:33;;;;;;;15.55;5.60;;;;;;;18.74;100.00;100600.00;4994002;28;20029;-60
2023/07/29 01:29:59;;;;;;;9.77;5.30;;;;;;;18.65;100.00;100594.00;4994166;28;20384;-60
2023/07/29 01:32:52;;;;;;;9.27;5.40;;;;;;;18.63;100.00;100602.06;4993851;28;20038;-60
2023/07/29 01:35:33;;;;;;;9.32;5.45;;;;;;;18.59;100.00;100596.84;4992599;28;20368;-60
2023/07/29 01:38:06;;;;;;;11.52;5.53;;;;;;;18.62;100.00;100597.63;4993852;28;20081;-60
2023/07/29 01:40:33;;;;;;;8.52;5.63;;;;;;;18.55;100.00;100596.03;4993978;28;20026;-60
2023/07/29 01:42:59;;;;;;;9.35;5.50;;;;;;;18.55;100.00;100595.16;4994173;28;20029;-60
2023/07/29 01:45:27;;;;;;;7.45;5.60;;;;;;;18.53;100.00;100597.84;4994127;28;20038;-59
2023/07/29 01:47:53;;;;;;;10.07;5.72;;;;;;;18.52;100.00;100610.38;4993716;28;20535;-60
2023/07/29 01:50:18;;;;;;;8.45;5.80;;;;;;;18.53;100.00;100596.06;4994138;28;20024;-60
2023/07/29 01:52:43;;;;;;;10.48;5.85;;;;;;;18.49;100.00;100607.75;4993708;28;20477;-60
2023/07/29 01:55:09;;;;;;;9.63;6.00;;;;;;;18.49;100.00;100605.09;4993982;28;20102;-60
2023/07/29 01:57:34;;;;;;;8.18;5.82;;;;;;;18.46;100.00;100606.97;4993658;28;20030;-60
2023/07/29 02:00:00;;;;;;;8.05;5.80;;;;;;;18.49;100.00;100612.22;4993279;28;20027;-60
2023/07/29 02:02:25;;;;;;;8.48;5.95;;;;;;;18.47;100.00;100614.09;4993626;28;20076;-60
2023/07/29 02:04:52;;;;;;;8.38;5.70;;;;;;;18.46;100.00;100615.00;4993551;28;20074;-60
2023/07/29 02:07:19;;;;;;;10.88;5.35;;;;;;;18.46;100.00;100607.84;4993702;28;20034;-60
2023/07/29 02:09:44;;;;;;;11.27;6.25;;;;;;;18.44;100.00;100606.13;4993777;28;20031;-60
2023/07/29 02:12:10;;;;;;;10.07;5.30;;;;;;;18.47;100.00;100611.41;4993466;28;20031;-60
2023/07/29 02:14:35;;;;;;;9.48;5.63;;;;;;;18.42;100.00;100607.97;4993560;28;20033;-62
2023/07/29 02:17:01;;;;;;;8.95;5.80;;;;;;;18.43;100.00;100601.69;4993452;28;20037;-60
2023/07/29 02:19:26;;;;;;;8.75;5.90;;;;;;;18.42;100.00;100599.94;4993373;28;20368;-60
2023/07/29 02:21:52;;;;;;;8.23;5.57;;;;;;;18.42;100.00;100600.81;4993121;28;20042;-60
2023/07/29 02:24:17;;;;;;;8.65;5.55;;;;;;;18.43;99.49;100601.69;4993683;28;20065;-60
2023/07/29 02:26:42;;;;;;;9.23;4.95;;;;;;;18.43;98.94;100591.88;4991996;28;20069;-60
2023/07/29 02:29:08;;;;;;;7.30;4.75;;;;;;;18.46;98.50;100590.94;4993253;28;20403;-61
2023/07/29 02:31:34;;;;;;;6.55;4.68;;;;;;;18.46;97.82;100591.81;4993407;28;20465;-60
2023/07/29 02:34:00;;;;;;;7.97;5.15;;;;;;;18.42;97.33;100587.44;4975404;28;20030;-60
2023/07/29 02:36:25;;;;;;;8.00;5.45;;;;;;;18.45;97.27;100587.34;4992870;28;20388;-61
2023/07/29 02:38:51;;;;;;;8.57;4.80;;;;;;;18.46;97.12;100585.59;4992872;28;20412;-60
2023/07/29 02:41:17;;;;;;;7.63;5.15;;;;;;;18.40;97.01;100591.06;4993205;28;20154;-60
2023/07/29 02:43:43;;;;;;;7.78;4.93;;;;;;;18.33;97.37;100586.78;4992939;28;20037;-60
2023/07/29 02:46:09;;;;;;;8.32;4.97;;;;;;;18.36;97.52;100592.06;4993155;28;20018;-60
2023/07/29 02:48:34;;;;;;;7.45;5.05;;;;;;;18.38;96.51;100587.56;4992921;28;20050;-60
2023/07/29 02:51:00;;;;;;;6.82;4.60;;;;;;;18.36;96.34;100584.91;4993052;28;20384;-60
2023/07/29 02:53:25;;;;;;;7.00;4.70;;;;;;;18.26;96.07;100589.63;4975508;28;20070;-60
2023/07/29 02:55:50;;;;;;;8.80;4.28;;;;;;;18.22;95.70;100582.59;4993074;28;20109;-60
2023/07/29 02:58:16;;;;;;;8.93;4.40;;;;;;;18.24;95.91;100582.53;4993192;28;20388;-60
2023/07/29 03:00:43;;;;;;;9.90;4.22;;;;;;;18.24;95.12;100586.13;4992873;28;20045;-60
2023/07/29 03:03:08;;;;;;;5.78;4.07;;;;;;;18.22;94.82;100585.25;4992632;28;20031;-61
2023/07/29 03:05:34;;;;;;;8.23;3.75;;;;;;;18.19;94.55;100582.66;4992578;28;20026;-60
2023/07/29 03:07:59;;;;;;;5.15;4.00;;;;;;;18.17;94.04;100581.84;4992898;28;20113;-60
2023/07/29 03:10:25;;;;;;;7.57;4.22;;;;;;;18.15;94.27;100582.78;4993893;28;20026;-60
2023/07/29 03:12:50;;;;;;;6.82;4.13;;;;;;;18.13;93.66;100582.81;4996462;28;20368;-60
2023/07/29 03:15:16;;;;;;;6.72;4.18;;;;;;;18.11;94.20;100579.28;4996530;28;20026;-60
2023/07/29 03:17:42;;;;;;;5.85;3.97;;;;;;;18.08;94.36;100581.19;4996562;28;20035;-59
2023/07/29 03:20:08;;;;;;;7.50;4.05;;;;;;;18.09;94.36;100573.13;4996231;28;20182;-60
2023/07/29 03:22:33;;;;;;;5.90;4.18;;;;;;;18.07;94.23;100576.72;4996714;28;20553;-60
2023/07/29 03:24:58;;;;;;;6.10;4.03;;;;;;;18.06;94.87;100596.38;4996482;28;20033;-60
2023/07/29 03:27:24;;;;;;;6.63;4.10;;;;;;;17.99;95.33;100593.88;4996462;28;20113;-60
2023/07/29 03:29:49;;;;;;;8.43;4.30;;;;;;;17.96;95.64;100596.59;4996706;28;20503;-60
2023/07/29 03:32:15;;;;;;;10.55;4.57;;;;;;;17.94;95.61;100594.88;4996112;28;20118;-60
2023/07/29 03:34:40;;;;;;;12.30;4.72;;;;;;;17.88;96.29;100593.22;4994880;28;20026;-60
2023/07/29 03:37:06;;;;;;;7.43;4.78;;;;;;;17.81;96.29;100606.75;4996001;28;20050;-60
2023/07/29 03:39:31;;;;;;;6.10;4.43;;;;;;;17.78;96.46;100589.03;4995327;28;20391;-59
2023/07/29 03:41:57;;;;;;;6.03;4.28;;;;;;;17.79;96.51;100595.25;4995951;28;20544;-61
2023/07/29 03:44:23;;;;;;;8.35;4.53;;;;;;;17.73;96.74;100602.44;4996025;28;20456;-60
2023/07/29 03:46:48;;;;;;;6.35;4.22;;;;;;;17.69;96.82;100600.75;4996284;28;20030;-60
2023/07/29 03:49:13;;;;;;;8.70;4.57;;;;;;;17.67;96.72;100596.34;4995950;28;20439;-60
2023/07/29 03:51:39;;;;;;;8.23;4.20;;;;;;;17.66;96.05;100594.59;4995931;28;20046;-60
2023/07/29 03:54:04;;;;;;;5.47;4.18;;;;;;;17.65;96.39;100595.53;4995893;28;20518;-60
2023/07/29 03:56:30;;;;;;;6.97;4.40;;;;;;;17.61;96.80;100596.50;4995724;28;20065;-60
2023/07/29 03:59:02;;;;;;;6.72;4.07;;;;;;;17.60;96.87;100590.28;4995619;28;20146;-60
2023/07/29 04:01:28;;;;;;;9.57;4.65;;;;;;;17.54;96.76;100574.38;4995658;28;20471;-60
2023/07/29 04:03:54;;;;;;;6.95;4.55;;;;;;;17.47;97.31;100562.97;4995267;28;20066;-60
2023/07/29 04:06:20;;;;;;;7.78;4.63;;;;;;;17.46;97.77;100554.97;4995624;28;20035;-60
2023/07/29 04:08:46;;;;;;;9.07;5.03;;;;;;;17.37;98.21;100555.16;4995452;28;20027;-60
2023/07/29 04:11:11;;;;;;;7.85;4.60;;;;;;;17.27;98.75;100558.03;4995534;28;20030;-60
2023/07/29 04:13:37;;;;;;;6.47;4.50;;;;;;;17.21;98.89;100560.81;4995437;28;20037;-60
2023/07/29 04:16:04;;;;;;;6.68;4.22;;;;;;;17.12;100.00;100550.34;4995618;28;20158;-60
2023/07/29 04:18:29;;;;;;;7.90;4.68;;;;;;;17.05;100.00;100554.06;4995105;28;20022;-60
2023/07/29 04:20:55;;;;;;;6.57;4.43;;;;;;;17.04;100.00;100552.28;4994936;28;20062;-60
2023/07/29 04:23:20;;;;;;;6.13;4.70;;;;;;;16.96;100.00;100563.16;4995366;28;20022;-60
2023/07/29 04:25:46;;;;;;;7.88;4.63;;;;;;;16.99;100.00;100581.75;4994042;28;20037;-60
2023/07/29 04:28:11;;;;;;;8.85;4.80;;;;;;;17.00;100.00;100595.97;4995292;28;20532;-60
2023/07/29 04:30:36;;;;;;;8.18;4.75;;;;;;;17.00;100.00;100601.31;4995210;28;20077;-60
2023/07/29 04:33:02;;;;;;;6.47;4.75;;;;;;;17.01;100.00;100608.44;4994877;28;20504;-60
2023/07/29 04:35:27;;;;;;;6.65;4.40;;;;;;;17.01;100.00;100611.97;4994888;28;20022;-59
2023/07/29 04:37:52;;;;;;;10.48;4.90;;;;;;;17.08;100.00;100607.38;4995081;28;20539;-60
2023/07/29 04:40:18;;;;;;;7.03;4.45;;;;;;;17.14;100.00;100603.72;4994824;28;20022;-60
2023/07/29 04:42:43;;;;;;;6.82;4.30;;;;;;;17.13;100.00;100602.84;4994789;28;20034;-60
2023/07/29 04:45:09;;;;;;;6.90;4.20;;;;;;;17.14;100.00;100609.94;4995179;28;20046;-60
2023/07/29 04:47:35;;;;;;;9.25;4.43;;;;;;;17.17;100.00;100608.97;4994690;28;20616;-60
2023/07/29 04:50:01;;;;;;;6.75;4.10;;;;;;;17.21;100.00;100614.22;4977277;28;20513;-60
2023/07/29 04:52:26;;;;;;;6.38;4.40;;;;;;;17.22;100.00;100613.34;4994742;28;20034;-60
2023/07/29 04:54:51;;;;;;;7.78;4.72;;;;;;;17.27;100.00;100613.25;4994814;28;20026;-60
2023/07/29 04:57:17;;;;;;;7.65;4.38;;;;;;;17.25;100.00;100601.69;4994551;28;20539;-60
2023/07/29 04:59:42;;;;;;;9.88;4.50;;;;;;;17.26;100.00;100603.47;4994728;28;20369;-60
2023/07/29 05:02:08;;;;;;;7.43;4.18;;;;;;;17.30;100.00;100618.53;4994747;28;20122;-60
2023/07/29 05:04:33;;;;;;;6.35;4.07;;;;;;;17.30;99.52;100613.19;4993788;28;20483;-60
2023/07/29 05:06:58;;;;;;;7.13;4.22;;;;;;;17.32;99.76;100614.03;4994746;28;20133;-60
2023/07/29 05:09:24;;;;;;;6.05;3.85;;;;;;;17.36;99.44;100613.06;4976996;28;20443;-60
2023/07/29 05:11:49;;;;;;;5.85;3.97;;;;;;;17.36;99.25;100631.75;4994391;28;20439;-60
2023/07/29 05:14:16;;;;;;;6.65;3.60;;;;;;;17.34;99.05;100628.22;4994531;28;20026;-60
2023/07/29 05:16:42;;;;;;;6.50;3.95;;;;;;;17.32;99.09;100632.72;4994322;28;20030;-60
2023/07/29 05:19:08;;;;;;;7.43;3.83;;;;;;;17.33;99.08;100641.59;4993906;28;20027;-60
2023/07/29 05:21:33;;;;;;;6.47;3.60;;;;;;;17.34;99.26;100644.22;4994226;28;20073;-60
2023/07/29 05:23:59;;;;;;;7.72;3.92;;;;;;;17.34;98.84;100646.03;4993921;28;20035;-60
2023/07/29 05:26:24;;;;;;;5.38;3.65;;;;;;;17.36;99.06;100641.56;4994315;28;20084;-60
2023/07/29 05:28:50;;;;;;;4.63;3.53;;;;;;;17.37;99.13;100625.47;4993908;28;20105;-59
2023/07/29 05:31:15;;;;;;;6.35;3.85;;;;;;;17.38;98.85;100627.25;4993862;28;20031;-60
2023/07/29 05:33:40;;;;;;;5.55;3.70;;;;;;;17.39;98.60;100629.03;4992894;28;20030;-60
2023/07/29 05:36:06;;;;;;;7.30;3.90;;;;;;;17.38;98.65;100637.03;4993753;28;20026;-60
2023/07/29 05:38:31;;;;;;;8.35;4.20;;;;;;;17.39;99.07;100631.69;4993965;28;20054;-59
2023/07/29 05:40:57;;;;;;;5.32;3.85;;;;;;;17.39;98.79;100634.38;4993756;28;20069;-60
2023/07/29 05:43:24;;;;;;;7.38;3.90;;;;;;;17.35;98.68;100630.00;4994218;28;20034;-60
2023/07/29 05:45:50;;;;;;;10.18;4.20;;;;;;;17.36;98.81;100636.22;4993785;28;20388;-60
2023/07/29 05:48:16;;;;;;;6.57;3.80;;;;;;;17.34;98.58;100628.22;4993637;28;20112;-61
2023/07/29 05:50:41;;;;;;;5.78;3.70;;;;;;;17.38;99.03;100627.25;4993672;28;20492;-60
2023/07/29 05:53:07;;;;;;;6.15;3.67;;;;;;;17.56;99.10;100627.75;4993419;28;20042;-60
2023/07/29 05:55:32;;;;;;;8.43;3.90;;;;;;;17.81;98.68;100633.50;4993992;28;20042;-59
2023/07/29 05:57:58;;;;;;;5.18;3.50;;;;;;;18.04;97.23;100639.19;4993876;28;20031;-60
2023/07/29 06:00:23;;;;;;;7.00;4.00;;;;;;;18.17;94.80;100629.97;4993619;28;20061;-59
2023/07/29 06:02:48;;;;;;;5.53;3.70;;;;;;;18.33;95.78;100632.25;4993037;28;20042;-60
2023/07/29 06:05:14;;;;;;;8.00;3.50;;;;;;;18.49;93.85;100630.97;4993337;28;20045;-60
2023/07/29 06:07:43;;;;;;;5.85;3.60;;;;;;;18.55;92.89;100640.66;4993536;28;20030;-60
2023/07/29 06:10:11;;;;;;;4.90;3.65;;;;;;;18.61;92.97;100636.00;4993426;28;20491;-59
2023/07/29 06:12:37;;;;;;;7.20;3.65;;;;;;;18.73;92.38;100640.22;4993280;28;20040;-60
2023/07/29 06:15:04;;;;;;;6.88;3.47;;;;;;;18.82;92.09;100641.75;4993681;28;20105;-59
2023/07/29 06:17:29;;;;;;;5.75;3.40;;;;;;;18.97;91.53;100635.97;4993649;28;20046;-60
2023/07/29 06:19:55;;;;;;;5.95;3.45;;;;;;;18.92;89.66;100637.91;4993238;28;20510;-60
2023/07/29 06:22:20;;;;;;;5.90;3.30;;;;;;;19.06;90.15;100633.06;4993597;28;20039;-60
2023/07/29 06:24:45;;;;;;;5.10;3.50;;;;;;;19.30;89.55;100638.66;4993298;28;20517;-60
2023/07/29 06:27:11;;;;;;;5.28;3.55;;;;;;;19.43;88.23;100632.88;4993291;28;20030;-59
2023/07/29 06:29:37;;;;;;;5.13;3.70;;;;;;;19.51;87.12;100633.53;4993056;28;20030;-60
2023/07/29 06:32:02;;;;;;;9.05;3.80;;;;;;;19.56;87.17;100630.72;4991622;28;20074;-60
2023/07/29 06:34:28;;;;;;;12.57;3.80;;;;;;;19.65;86.97;100641.19;4993070;28;20030;-60
2023/07/29 06:36:53;;;;;;;5.88;3.70;;;;;;;19.61;86.08;100636.84;4993001;28;20516;-60
2023/07/29 06:39:18;;;;;;;5.47;3.60;;;;;;;19.63;86.25;100644.88;4992029;28;20030;-60
2023/07/29 06:41:44;;;;;;;5.60;3.70;;;;;;;19.74;86.60;100640.03;4993266;28;20077;-59
2023/07/29 06:44:09;;;;;;;4.97;3.72;;;;;;;19.91;85.31;100634.16;4993268;28;20481;-60
2023/07/29 06:46:35;;;;;;;6.28;3.70;;;;;;;20.06;84.56;100632.81;4996961;28;20026;-60
2023/07/29 06:49:00;;;;;;;6.93;3.67;;;;;;;20.30;83.63;100631.13;4997076;28;20027;-60
2023/07/29 06:51:25;;;;;;;5.00;3.38;;;;;;;20.45;83.53;100626.16;4997042;28;20027;-59
2023/07/29 06:53:51;;;;;;;8.93;3.67;;;;;;;20.49;82.64;100627.84;4996923;28;20034;-59
2023/07/29 06:56:16;;;;;;;6.18;3.80;;;;;;;20.65;81.95;100648.81;4997298;28;20062;-60
2023/07/29 06:58:42;;;;;;;4.85;3.53;;;;;;;20.84;81.67;100640.97;4996879;28;20480;-59
2023/07/29 07:01:07;;;;;;;7.25;3.80;;;;;;;20.81;80.74;100650.00;4996942;28;20494;-60
2023/07/29 07:03:33;;;;;;;7.20;3.75;;;;;;;20.84;80.33;100649.91;4996518;28;20042;-60
2023/07/29 07:05:58;;;;;;;5.50;3.80;;;;;;;20.84;81.28;100657.97;4996793;28;20480;-60
2023/07/29 07:08:24;;;;;;;5.93;3.50;;;;;;;20.80;80.72;100667.06;4996698;28;20022;-60
2023/07/29 07:10:49;;;;;;;5.15;3.17;;;;;;;20.82;80.79;100646.41;4996826;28;20027;-60
2023/07/29 07:13:15;;;;;;;5.55;3.20;;;;;;;20.99;80.89;100651.19;4996723;28;20030;-59
2023/07/29 07:15:40;;;;;;;4.38;3.13;;;;;;;21.06;81.01;100662.59;4996830;28;20029;-59
2023/07/29 07:18:05;;;;;;;5.50;3.00;;;;;;;21.00;80.40;100663.69;4996476;28;20030;-60
2023/07/29 07:20:31;;;;;;;5.18;3.10;;;;;;;20.87;80.04;100657.00;4996485;28;20078;-59
2023/07/29 07:22:56;;;;;;;3.97;2.97;;;;;;;20.76;80.77;100658.22;4979027;28;20105;-60
2023/07/29 07:25:22;;;;;;;4.63;2.83;;;;;;;20.62;81.03;100654.28;4996412;28;20031;-59
2023/07/29 07:27:48;;;;;;;5.55;3.20;;;;;;;20.46;81.26;100659.22;4996628;28;20058;-60
2023/07/29 07:30:14;;;;;;;4.05;2.90;;;;;;;20.47;81.91;100661.88;4996223;28;20484;-60
2023/07/29 07:32:39;;;;;;;4.90;3.00;;;;;;;20.49;82.50;100660.03;4995958;28;20022;-60
2023/07/29 07:35:05;;;;;;;4.53;3.00;;;;;;;20.49;81.59;100665.41;4996190;28;20468;-60
2023/07/29 07:37:30;;;;;;;5.85;2.90;;;;;;;20.61;82.51;100677.56;4996298;28;20511;-60
2023/07/29 07:39:56;;;;;;;6.57;2.95;;;;;;;20.66;81.86;100675.59;4996024;28;20035;-60
2023/07/29 07:42:21;;;;;;;5.22;2.78;;;;;;;20.65;81.26;100681.03;4996386;28;20041;-60
2023/07/29 07:44:47;;;;;;;5.90;2.75;;;;;;;20.68;81.74;100668.34;4995049;28;20030;-60
2023/07/29 07:47:12;;;;;;;4.53;2.85;;;;;;;20.71;81.50;100679.00;4995789;28;20038;-60
2023/07/29 07:49:38;;;;;;;5.78;3.10;;;;;;;20.66;80.71;100678.28;4995730;28;20030;-60
2023/07/29 07:52:05;;;;;;;5.57;2.75;;;;;;;20.70;81.41;100679.94;4995890;28;20045;-60
2023/07/29 07:54:30;;;;;;;5.22;2.92;;;;;;;20.73;81.25;100681.66;4996015;28;20483;-60
2023/07/29 07:56:56;;;;;;;4.28;2.70;;;;;;;20.81;80.00;100687.59;4994969;28;20554;-60
2023/07/29 07:59:21;;;;;;;4.13;2.80;;;;;;;20.95;80.63;100690.72;4994923;28;20030;-60
2023/07/29 08:01:47;;;;;;;5.70;3.30;;;;;;;20.99;79.95;100678.06;4995648;28;20039;-60
2023/07/29 08:04:12;;;;;;;12.15;2.88;;;;;;;21.19;79.83;100680.03;4995712;28;20038;-60
2023/07/29 08:06:38;;;;;;;4.03;2.95;;;;;;;21.30;78.68;100680.53;4995654;28;20113;-60
2023/07/29 08:09:03;;;;;;;4.32;2.63;;;;;;;21.37;77.07;100674.03;4995811;28;20050;-59
2023/07/29 08:11:28;;;;;;;4.30;2.60;;;;;;;21.36;76.70;100677.63;4994572;28;20114;-60
2023/07/29 08:13:54;;;;;;;3.53;2.60;;;;;;;21.42;76.50;100676.56;4995495;28;20041;-60
2023/07/29 08:16:19;;;;;;;5.05;2.47;;;;;;;21.49;75.81;100675.38;4977987;28;20077;-60
2023/07/29 08:18:44;;;;;;;6.45;2.60;;;;;;;21.52;75.25;100682.47;4995445;28;20109;-60
2023/07/29 08:21:10;;;;;;;4.22;2.45;;;;;;;21.54;75.35;100676.09;4995567;28;20448;-60
2023/07/29 08:23:37;;;;;;;3.95;2.35;;;;;;;21.59;74.97;100684.88;4995648;28;20023;-59
2023/07/29 08:26:05;;;;;;;4.60;2.63;;;;;;;21.58;75.41;100684.91;4995627;28;20022;-60
2023/07/29 08:28:32;;;;;;;4.65;2.60;;;;;;;21.48;75.75;100689.75;4995335;28;20077;-60
2023/07/29 08:30:58;;;;;;;4.72;2.60;;;;;;;21.32;77.29;100693.94;4995215;28;20065;-60
2023/07/29 08:33:24;;;;;;;4.40;2.40;;;;;;;21.23;76.17;100685.22;4994834;28;20098;-60
2023/07/29 08:35:49;;;;;;;4.13;2.22;;;;;;;21.19;77.32;100680.03;4994937;28;20034;-60
2023/07/29 08:38:15;;;;;;;3.10;2.30;;;;;;;21.19;75.39;100680.03;4993593;28;20050;-60
2023/07/29 08:40:57;;;;;;;3.45;2.20;;;;;;;21.21;76.20;100681.75;4995171;28;20471;-60
2023/07/29 08:43:30;;;;;;;6.43;2.25;;;;;;;21.34;76.65;100678.66;4993952;28;20035;-60
2023/07/29 08:45:57;;;;;;;3.88;2.40;;;;;;;21.33;74.38;100680.47;5006175;28;20026;-60
2023/07/29 08:48:31;;;;;;;3.55;2.40;;;;;;;21.24;74.92;100678.03;5014116;28;20521;-59
2023/07/29 08:50:59;;;;;;;4.85;2.40;;;;;;;21.35;75.94;100678.59;5014213;28;20041;-59
2023/07/29 08:53:26;;;;;;;4.63;2.53;;;;;;;21.42;74.46;100672.06;5014409;28;20173;-60
2023/07/29 08:55:53;;;;;;;3.25;2.25;;;;;;;21.83;74.30;100674.09;5012850;28;20026;-60
2023/07/29 08:58:19;;;;;;;3.03;2.13;;;;;;;22.09;71.24;100682.03;5014149;28;20034;-60
2023/07/29 09:00:46;;;;;;;3.05;2.20;;;;;;;22.34;71.60;100673.00;5014075;28;20030;-60
2023/07/29 09:03:11;;;;;;;4.72;2.30;;;;;;;22.22;70.26;100672.56;5014152;28;20045;-59
2023/07/29 09:05:37;;;;;;;4.22;2.40;;;;;;;22.25;71.69;100672.44;5014084;28;20022;-60
2023/07/29 09:08:03;;;;;;;4.68;2.10;;;;;;;22.35;70.28;100672.94;5013937;28;20022;-60
2023/07/29 09:10:29;;;;;;;3.33;2.22;;;;;;;22.41;71.04;100677.22;5014058;28;20101;-60
2023/07/29 09:12:55;;;;;;;2.90;2.15;;;;;;;22.50;69.41;100677.72;5013570;28;20116;-59
2023/07/29 09:15:31;;;;;;;3.20;2.20;;;;;;;22.57;70.13;100677.44;5014160;28;20026;-60
2023/07/29 09:17:57;;;;;;;4.45;2.47;;;;;;;22.64;69.57;100678.94;5013752;28;20041;-60
2023/07/29 09:20:29;;;;;;;3.63;2.15;;;;;;;22.88;70.39;100680.63;5013631;28;20042;-60
2023/07/29 09:22:55;;;;;;;3.15;2.10;;;;;;;23.02;67.74;100668.41;5013893;28;20491;-60
2023/07/29 09:25:25;;;;;;;4.75;2.30;;;;;;;23.32;67.08;100671.56;5013571;28;20491;-60
2023/07/29 09:27:51;;;;;;;2.38;1.85;;;;;;;23.66;64.86;100663.69;5013727;28;20021;-60
2023/07/29 09:30:17;;;;;;;2.33;1.90;;;;;;;23.90;64.16;100659.00;5013935;28;20080;-60
2023/07/29 09:32:42;;;;;;;2.55;1.90;;;;;;;24.34;64.59;100649.69;5013397;28;20029;-60
2023/07/29 09:35:14;;;;;;;3.55;2.10;;;;;;;24.34;62.52;100655.06;5013655;28;20368;-60
2023/07/29 09:37:39;;;;;;;2.20;2.00;;;;;;;24.58;62.55;100661.09;5013343;28;20054;-60
2023/07/29 09:40:06;;;;;;;4.35;2.05;;;;;;;24.93;61.22;100652.09;5013831;28;20030;-59
2023/07/29 09:42:32;;;;;;;2.80;1.88;;;;;;;25.21;61.01;100647.94;5013529;28;20407;-59
2023/07/29 09:44:58;;;;;;;5.38;2.28;;;;;;;25.31;59.62;100653.72;5012106;28;20034;-60
2023/07/29 09:47:25;;;;;;;2.80;1.98;;;;;;;25.51;58.74;100666.19;5013565;28;20033;-59
2023/07/29 09:49:51;;;;;;;2.72;2.03;;;;;;;25.33;58.71;100659.94;5013488;28;20025;-60
2023/07/29 09:52:18;;;;;;;4.40;2.33;;;;;;;25.09;60.37;100660.28;5013588;28;20026;-60
2023/07/29 09:54:44;;;;;;;3.20;2.20;;;;;;;24.90;60.43;100656.75;5013628;28;20036;-60
2023/07/29 09:57:11;;;;;;;4.07;2.20;;;;;;;24.74;61.54;100671.06;5013602;28;20026;-60
2023/07/29 09:59:36;;;;;;;4.00;2.20;;;;;;;24.50;62.07;100664.22;5013453;28;20030;-60
2023/07/29 10:02:02;;;;;;;4.28;2.35;;;;;;;24.35;61.60;100664.91;5013220;28;20026;-60
2023/07/29 10:04:29;;;;;;;4.95;2.40;;;;;;;24.01;62.51;100669.25;5013043;28;20122;-60
2023/07/29 10:06:57;;;;;;;3.55;2.05;;;;;;;23.76;62.94;100676.75;5013174;28;20042;-60
2023/07/29 10:09:23;;;;;;;3.53;2.13;;;;;;;23.56;64.16;100678.53;5013211;28;20033;-60
2023/07/29 10:11:50;;;;;;;3.00;2.20;;;;;;;23.36;64.53;100668.66;5013118;28;20030;-60
2023/07/29 10:14:16;;;;;;;6.68;2.30;;;;;;;23.22;65.80;100668.41;5013428;28;20026;-60
2023/07/29 10:16:45;;;;;;;3.60;2.30;;;;;;;23.13;67.93;100658.91;5013212;28;20483;-60
2023/07/29 10:19:12;;;;;;;4.57;2.70;;;;;;;23.59;67.58;100661.31;4995065;28;20376;-60
2023/07/29 10:21:40;;;;;;;3.10;2.20;;;;;;;23.89;66.14;100669.84;5009009;28;20023;-60
2023/07/29 10:24:11;;;;;;;4.18;2.40;;;;;;;24.04;64.65;100658.31;4993628;28;20139;-60
2023/07/29 10:26:40;;;;;;;3.30;2.20;;;;;;;24.51;64.14;100665.06;4993381;28;20395;-60
2023/07/29 10:29:10;;;;;;;4.65;2.70;;;;;;;24.62;62.21;100654.59;4993117;28;20543;-60
2023/07/29 10:31:37;;;;;;;3.88;2.33;;;;;;;24.72;62.67;100653.19;4993314;28;20058;-60
2023/07/29 10:34:03;;;;;;;3.63;2.30;;;;;;;24.83;61.42;100658.03;4992757;28;20030;-60
2023/07/29 10:36:29;;;;;;;2.95;2.05;;;;;;;24.70;60.68;100657.78;4993448;28;20034;-60
2023/07/29 10:38:55;;;;;;;5.45;2.38;;;;;;;24.56;61.89;100654.91;4992544;28;20042;-61
2023/07/29 10:41:20;;;;;;;4.22;2.40;;;;;;;24.67;62.57;100645.31;4992936;28;20600;-61
2023/07/29 10:43:45;;;;;;;3.28;2.20;;;;;;;24.98;60.79;100641.03;4992607;28;20025;-61
2023/07/29 10:46:21;;;;;;;2.75;2.10;;;;;;;25.12;60.07;100643.03;4992617;28;20053;-61
2023/07/29 10:48:55;;;;;;;3.95;2.20;;;;;;;25.35;59.87;100629.16;4989955;28;20112;-61
2023/07/29 10:51:29;;;;;;;3.20;2.35;;;;;;;25.58;60.09;100635.16;4992382;28;20026;-60
2023/07/29 10:54:11;;;;;;;3.40;2.30;;;;;;;25.71;58.72;100650.63;4987302;28;20423;-60
2023/07/29 10:56:40;;;;;;;4.40;2.28;;;;;;;25.46;57.25;100633.97;4986528;28;20498;-60
2023/07/29 10:59:11;;;;;;;3.70;2.30;;;;;;;25.32;57.85;100631.16;4990051;28;20046;-60
2023/07/29 11:01:39;;;;;;;4.82;2.22;;;;;;;25.18;58.49;100635.47;4992460;28;20153;-60
2023/07/29 11:04:23;;;;;;;4.45;2.30;;;;;;;25.09;59.20;100629.66;4988440;28;20391;-60
2023/07/29 11:07:04;;;;;;;3.60;2.22;;;;;;;24.99;60.26;100637.34;4990526;28;20019;-60
2023/07/29 11:09:50;;;;;;;5.15;2.60;;;;;;;24.78;60.60;100631.25;4992156;28;20054;-60
2023/07/29 11:12:42;;;;;;;4.93;2.30;;;;;;;24.62;60.96;100641.06;4992931;28;20033;-60
2023/07/29 11:15:10;;;;;;;3.38;2.50;;;;;;;24.32;59.75;100636.22;4993244;28;20049;-60
2023/07/29 11:17:44;;;;;;;3.67;2.28;;;;;;;24.14;61.13;100635.31;4992969;28;20030;-60
2023/07/29 11:20:10;;;;;;;3.97;2.33;;;;;;;24.01;60.68;100644.09;4992966;28;20104;-60
2023/07/29 11:22:36;;;;;;;3.70;2.40;;;;;;;23.74;61.86;100647.16;4993050;28;20437;-60